Aviation Digital Data Service (ADDS)

Output produced by METARs form (1322 UTC 17 August 2019)
found at http://aviationweather.gov/metar/data/
 
WADL 171300Z 11008KT 7000 BKN016 24/21 Q1016 NOSIG
WADL 171230Z 11008KT 7000 BKN016 25/20 Q1016 NOSIG
WADL 171200Z 11008KT 7000 BKN016 25/20 Q1016 NOSIG
WADL 171130Z 12009KT 7000 SCT016 25/21 Q1016 NOSIG
WADL 171100Z 11010KT 7000 SCT016 25/20 Q1015 NOSIG
WADL 171030Z 11012KT 7000 SCT016 25/20 Q1015 NOSIG
TAF WADL 171100Z 1712/1812 12013KT 7000 SCT016 
     BECMG 1714/1716 12003KT